createdAt,value
2024-02-04T00:00:31.015Z,65.86
2024-02-04T00:01:30.943Z,65.77
2024-02-04T00:02:30.858Z,65.48
2024-02-04T00:03:30.938Z,65.35
2024-02-04T00:04:30.951Z,65.45
2024-02-04T00:05:30.835Z,65.35
2024-02-04T00:06:30.910Z,65.28
2024-02-04T00:07:30.858Z,65.14
2024-02-04T00:08:31.493Z,65.14
2024-02-04T00:09:31.757Z,66.38
2024-02-04T00:10:30.786Z,65.56
2024-02-04T00:11:30.781Z,65.97
2024-02-04T00:12:30.772Z,65.86
2024-02-04T00:13:30.772Z,66.07
2024-02-04T00:14:30.760Z,66.28
2024-02-04T00:15:30.799Z,67.10
2024-02-04T00:16:30.733Z,66.48
2024-02-04T00:17:30.789Z,66.38
2024-02-04T00:18:30.805Z,66.48
2024-02-04T00:19:30.740Z,66.48
2024-02-04T00:20:30.683Z,66.41
2024-02-04T00:21:30.712Z,67.13
2024-02-04T00:22:30.681Z,66.93
2024-02-04T00:23:30.682Z,66.79
2024-02-04T00:24:30.717Z,66.58
2024-02-04T00:25:30.667Z,66.58
2024-02-04T00:26:30.632Z,66.07
2024-02-04T00:27:31.140Z,66.69
2024-02-04T00:28:31.604Z,66.82
2024-02-04T00:29:30.606Z,66.69
2024-02-04T00:30:30.643Z,67.30
2024-02-04T00:31:30.578Z,67.00
2024-02-04T00:32:30.633Z,67.00
2024-02-04T00:33:30.690Z,66.79
2024-02-04T00:34:30.584Z,67.00
2024-02-04T00:35:30.540Z,66.89
2024-02-04T00:36:30.592Z,67.00
2024-02-04T00:37:30.550Z,66.79
2024-02-04T00:38:30.515Z,66.89
2024-02-04T00:39:30.526Z,67.17
2024-02-04T00:40:30.533Z,66.96
2024-02-04T00:41:30.519Z,67.20
2024-02-04T00:42:30.492Z,67.20
2024-02-04T00:43:30.462Z,67.61
2024-02-04T00:44:30.456Z,67.61
2024-02-04T00:45:30.446Z,67.89
2024-02-04T00:46:30.452Z,68.23
2024-02-04T00:47:30.427Z,67.89
2024-02-04T00:48:30.674Z,67.89
2024-02-04T00:49:30.583Z,68.30
2024-02-04T00:50:30.397Z,67.99
2024-02-04T00:51:30.449Z,68.54
2024-02-04T00:52:30.381Z,68.91
2024-02-04T00:53:30.364Z,69.64
2024-02-04T00:54:30.384Z,70.39
2024-02-04T00:55:30.356Z,70.56
2024-02-04T00:56:30.393Z,71.21
2024-02-04T00:57:30.387Z,70.97
2024-02-04T00:58:30.320Z,72.41
2024-02-04T00:59:30.304Z,72.61
2024-02-04T01:00:30.352Z,72.41
2024-02-04T01:01:30.395Z,74.05
2024-02-04T01:02:30.275Z,75.18
2024-02-04T01:03:30.316Z,75.29
2024-02-04T01:04:30.418Z,74.74
2024-02-04T01:05:30.309Z,75.29
2024-02-04T01:06:32.774Z,75.97
2024-02-04T01:07:30.246Z,76.17
2024-02-04T01:08:30.224Z,75.66
2024-02-04T01:09:30.946Z,77.40
2024-02-04T01:10:30.223Z,77.51
2024-02-04T01:11:30.197Z,78.12
2024-02-04T01:12:30.205Z,77.92
2024-02-04T01:13:30.167Z,78.12
2024-02-04T01:14:30.214Z,78.64
2024-02-04T01:15:30.206Z,78.94
2024-02-04T01:16:30.144Z,79.66
2024-02-04T01:17:30.154Z,79.66
2024-02-04T01:18:30.220Z,80.07
2024-02-04T01:19:30.240Z,80.18
2024-02-04T01:20:30.114Z,80.65
2024-02-04T01:21:30.176Z,81.00
2024-02-04T01:22:30.084Z,81.30
2024-02-04T01:23:30.100Z,80.69
2024-02-04T01:24:30.169Z,81.30
2024-02-04T01:25:30.091Z,82.03
2024-02-04T01:26:30.050Z,82.03
2024-02-04T01:27:30.126Z,81.62
2024-02-04T01:28:30.065Z,82.13
2024-02-04T01:29:30.023Z,82.23
2024-02-04T01:30:30.101Z,81.71
2024-02-04T01:31:30.006Z,81.82
2024-02-04T01:32:30.004Z,82.03
2024-02-04T01:33:30.080Z,81.51
2024-02-04T01:34:30.054Z,81.10
2024-02-04T01:35:29.970Z,80.90
2024-02-04T01:36:29.961Z,81.00
2024-02-04T01:37:29.965Z,80.90
2024-02-04T01:38:29.944Z,79.87
2024-02-04T01:39:29.947Z,79.97
2024-02-04T01:40:29.927Z,79.66
2024-02-04T01:41:29.943Z,79.66
2024-02-04T01:42:29.930Z,79.36
2024-02-04T01:43:29.892Z,79.15
2024-02-04T01:44:29.922Z,78.94
2024-02-04T01:45:29.857Z,78.53
2024-02-04T01:46:30.852Z,78.43
2024-02-04T01:47:29.870Z,78.33
2024-02-04T01:48:29.939Z,77.51
2024-02-04T01:49:29.906Z,77.30
2024-02-04T01:50:29.846Z,76.79
2024-02-04T01:51:29.849Z,76.79
2024-02-04T01:52:29.811Z,75.97
2024-02-04T01:53:29.800Z,76.07
2024-02-04T01:54:29.784Z,75.25
2024-02-04T01:55:29.760Z,74.84
2024-02-04T01:56:29.766Z,74.84
2024-02-04T01:57:29.756Z,74.63
2024-02-04T01:58:29.744Z,74.15
2024-02-04T01:59:29.731Z,73.54
2024-02-04T02:00:29.732Z,73.13
2024-02-04T02:01:29.871Z,73.13
2024-02-04T02:02:29.696Z,72.61
2024-02-04T02:03:29.769Z,72.31
2024-02-04T02:04:29.812Z,71.28
2024-02-04T02:05:29.687Z,71.89
2024-02-04T02:06:29.713Z,71.69
2024-02-04T02:07:29.757Z,71.08
2024-02-04T02:08:29.662Z,70.76
2024-02-04T02:09:29.675Z,70.36
2024-02-04T02:10:29.685Z,70.87
2024-02-04T02:11:29.630Z,70.66
2024-02-04T02:12:29.662Z,70.56
2024-02-04T02:13:29.588Z,70.66
2024-02-04T02:14:29.624Z,71.28
2024-02-04T02:15:29.609Z,70.66
2024-02-04T02:16:29.562Z,70.15
2024-02-04T02:17:29.613Z,70.56
2024-02-04T02:18:29.666Z,71.38
2024-02-04T02:19:29.630Z,70.66
2024-02-04T02:20:29.549Z,71.28
2024-02-04T02:21:29.557Z,70.97
2024-02-04T02:22:30.501Z,71.79
2024-02-04T02:23:29.499Z,71.17
2024-02-04T02:24:29.593Z,71.38
2024-02-04T02:25:29.466Z,71.38
2024-02-04T02:26:29.467Z,71.14
2024-02-04T02:27:29.503Z,71.08
2024-02-04T02:28:29.447Z,71.28
2024-02-04T02:29:29.442Z,70.87
2024-02-04T02:30:29.447Z,70.46
2024-02-04T02:31:35.694Z,71.35
2024-02-04T02:32:31.411Z,71.38
2024-02-04T02:33:29.475Z,70.56
2024-02-04T02:34:37.587Z,70.63
2024-02-04T02:35:31.454Z,70.66
2024-02-04T02:36:29.383Z,70.87
2024-02-04T02:37:29.367Z,70.66
2024-02-04T02:38:29.365Z,70.84
2024-02-04T02:39:29.344Z,70.97
2024-02-04T02:40:29.321Z,71.14
2024-02-04T02:41:29.312Z,70.63
2024-02-04T02:42:29.352Z,70.76
2024-02-04T02:43:29.312Z,70.94
2024-02-04T02:44:29.295Z,69.91
2024-02-04T02:45:29.314Z,69.94
2024-02-04T02:46:29.380Z,70.04
2024-02-04T02:47:29.332Z,69.91
2024-02-04T02:48:29.430Z,70.32
2024-02-04T02:49:29.341Z,69.70
2024-02-04T02:50:29.221Z,69.74
2024-02-04T02:51:29.225Z,69.84
2024-02-04T02:52:29.260Z,69.64
2024-02-04T02:53:29.282Z,69.29
2024-02-04T02:54:29.209Z,69.53
2024-02-04T02:55:29.172Z,69.74
2024-02-04T02:56:29.193Z,69.81
2024-02-04T02:57:29.215Z,70.04
2024-02-04T02:58:29.147Z,70.94
2024-02-04T02:59:29.162Z,70.63
2024-02-04T03:00:29.234Z,70.84
2024-02-04T03:01:29.184Z,71.55
2024-02-04T03:02:29.142Z,71.86
2024-02-04T03:03:29.197Z,71.72
2024-02-04T03:04:29.189Z,73.16
2024-02-04T03:05:29.117Z,73.16
2024-02-04T03:06:29.141Z,73.36
2024-02-04T03:07:30.074Z,73.88
2024-02-04T03:08:29.040Z,73.98
2024-02-04T03:09:29.034Z,74.40
2024-02-04T03:10:29.015Z,74.60
2024-02-04T03:11:29.037Z,74.19
2024-02-04T03:12:29.011Z,74.19
2024-02-04T03:13:28.987Z,73.78
2024-02-04T03:14:28.985Z,74.19
2024-02-04T03:15:28.986Z,74.29
2024-02-04T03:16:28.966Z,74.40
2024-02-04T03:17:28.984Z,74.60
2024-02-04T03:18:29.010Z,74.29
2024-02-04T03:19:28.980Z,74.19
2024-02-04T03:20:28.940Z,75.32
2024-02-04T03:21:28.946Z,75.01
2024-02-04T03:22:28.913Z,75.21
2024-02-04T03:23:28.888Z,74.80
2024-02-04T03:24:28.926Z,74.60
2024-02-04T03:25:28.880Z,74.80
2024-02-04T03:26:28.866Z,75.32
2024-02-04T03:27:28.911Z,74.29
2024-02-04T03:28:28.841Z,74.49
2024-02-04T03:29:28.835Z,73.57
2024-02-04T03:30:28.869Z,72.96
2024-02-04T03:31:28.809Z,72.55
2024-02-04T03:32:28.819Z,71.72
2024-02-04T03:33:28.894Z,71.25
2024-02-04T03:34:28.877Z,70.63
2024-02-04T03:35:28.910Z,69.91
2024-02-04T03:36:28.796Z,69.70
2024-02-04T03:37:28.764Z,68.88
2024-02-04T03:38:28.753Z,68.99
2024-02-04T03:39:28.790Z,68.85
2024-02-04T03:40:28.835Z,68.27
2024-02-04T03:41:28.730Z,68.57
2024-02-04T03:42:28.811Z,67.86
2024-02-04T03:43:28.703Z,67.76
2024-02-04T03:44:28.711Z,67.44
2024-02-04T03:45:28.717Z,67.14
2024-02-04T03:46:28.668Z,66.83
2024-02-04T03:47:28.692Z,66.63
2024-02-04T03:48:28.812Z,66.83
2024-02-04T03:49:28.874Z,66.04
2024-02-04T03:50:28.636Z,66.01
2024-02-04T03:51:28.691Z,66.01
2024-02-04T03:52:28.626Z,66.11
2024-02-04T03:53:28.623Z,65.50
2024-02-04T03:54:28.627Z,65.29
2024-02-04T03:55:28.581Z,65.50
2024-02-04T03:56:29.574Z,65.29
2024-02-04T03:57:28.595Z,65.70
2024-02-04T03:58:28.571Z,65.19
2024-02-04T03:59:28.563Z,65.39
2024-02-04T04:00:28.629Z,64.67
2024-02-04T04:01:28.583Z,64.78
2024-02-04T04:02:28.510Z,65.09
2024-02-04T04:03:28.587Z,64.98
2024-02-04T04:04:28.753Z,65.39
2024-02-04T04:05:28.606Z,64.88
2024-02-04T04:06:28.595Z,65.19
2024-02-04T04:07:28.559Z,64.98
2024-02-04T04:08:28.474Z,64.98
2024-02-04T04:09:28.466Z,64.98
2024-02-04T04:10:28.440Z,64.98
2024-02-04T04:11:28.448Z,64.70
2024-02-04T04:12:28.493Z,64.57
2024-02-04T04:13:28.404Z,64.47
2024-02-04T04:14:28.392Z,64.78
2024-02-04T04:15:28.447Z,63.96
2024-02-04T04:16:28.394Z,64.06
2024-02-04T04:17:28.394Z,63.96
2024-02-04T04:18:28.441Z,64.98
2024-02-04T04:19:28.420Z,63.96
2024-02-04T04:20:28.337Z,64.47
2024-02-04T04:21:28.385Z,64.57
2024-02-04T04:22:28.369Z,65.19
2024-02-04T04:23:28.309Z,64.88
2024-02-04T04:24:28.366Z,64.78
2024-02-04T04:25:28.299Z,64.98
2024-02-04T04:26:28.385Z,65.60
2024-02-04T04:27:28.366Z,64.78
2024-02-04T04:28:28.259Z,65.60
2024-02-04T04:29:28.260Z,65.60
2024-02-04T04:30:28.334Z,65.80
2024-02-04T04:31:28.270Z,65.80
2024-02-04T04:32:28.319Z,66.22
2024-02-04T04:33:28.285Z,66.11
2024-02-04T04:34:28.269Z,66.08
2024-02-04T04:35:28.210Z,66.83
2024-02-04T04:36:28.238Z,66.22
2024-02-04T04:37:28.181Z,66.11
2024-02-04T04:38:28.191Z,66.11
2024-02-04T04:39:28.251Z,66.19
2024-02-04T04:40:28.197Z,66.28
2024-02-04T04:41:28.133Z,65.67
2024-02-04T04:42:28.158Z,65.98
2024-02-04T04:43:28.126Z,66.31
2024-02-04T04:44:28.101Z,65.47
2024-02-04T04:45:28.180Z,65.57
2024-02-04T04:46:28.084Z,65.57
2024-02-04T04:47:28.076Z,65.39
2024-02-04T04:48:28.163Z,65.67
2024-02-04T04:49:28.091Z,64.64
2024-02-04T04:50:28.063Z,65.67
2024-02-04T04:51:28.049Z,64.95
2024-02-04T04:52:28.037Z,64.75
2024-02-04T04:53:28.041Z,65.47
2024-02-04T04:54:28.069Z,64.88
2024-02-04T04:55:28.002Z,64.98
2024-02-04T04:56:27.994Z,64.78
2024-02-04T04:57:28.005Z,64.47
2024-02-04T04:58:27.975Z,64.16
2024-02-04T04:59:53.891Z,64.64
2024-02-04T05:00:28.036Z,64.16
2024-02-04T05:01:28.038Z,64.16
2024-02-04T05:02:27.935Z,64.26
2024-02-04T05:03:28.012Z,64.57
2024-02-04T05:04:28.038Z,64.57
2024-02-04T05:05:27.896Z,64.88
2024-02-04T05:06:27.959Z,64.26
2024-02-04T05:07:28.018Z,65.19
2024-02-04T05:08:27.921Z,65.39
2024-02-04T05:09:27.861Z,64.88
2024-02-04T05:10:27.840Z,64.88
2024-02-04T05:11:27.852Z,64.78
2024-02-04T05:12:27.848Z,65.09
2024-02-04T05:13:27.834Z,65.19
2024-02-04T05:14:27.817Z,65.60
2024-02-04T05:15:27.824Z,65.70
2024-02-04T05:16:27.791Z,65.19
2024-02-04T05:17:27.857Z,64.98
2024-02-04T05:18:27.948Z,65.19
2024-02-04T05:19:27.909Z,64.98
2024-02-04T05:20:27.752Z,65.60
2024-02-04T05:21:27.762Z,65.29
2024-02-04T05:22:27.752Z,65.70
2024-02-04T05:23:27.735Z,65.39
2024-02-04T05:24:27.722Z,65.36
2024-02-04T05:25:27.705Z,65.50
2024-02-04T05:26:27.705Z,65.26
2024-02-04T05:27:27.873Z,65.60
2024-02-04T05:28:27.716Z,65.80
2024-02-04T05:29:27.711Z,64.67
2024-02-04T05:30:27.723Z,64.98
2024-02-04T05:31:27.677Z,65.29
2024-02-04T05:32:27.679Z,65.19
2024-02-04T05:33:27.749Z,64.98
2024-02-04T05:34:27.878Z,65.09
2024-02-04T05:35:27.609Z,64.37
2024-02-04T05:36:27.730Z,64.67
2024-02-04T05:37:27.582Z,64.16
2024-02-04T05:38:27.580Z,63.96
2024-02-04T05:39:27.620Z,64.88
2024-02-04T05:40:27.575Z,63.85
2024-02-04T05:41:27.563Z,63.44
2024-02-04T05:42:27.558Z,63.85
2024-02-04T05:43:27.519Z,63.54
2024-02-04T05:44:27.523Z,63.89
2024-02-04T05:45:27.627Z,63.85
2024-02-04T05:46:27.587Z,63.65
2024-02-04T05:47:27.562Z,63.85
2024-02-04T05:48:27.690Z,63.85
2024-02-04T05:49:27.543Z,64.06
2024-02-04T05:50:27.607Z,63.96
2024-02-04T05:51:27.483Z,64.06
2024-02-04T05:52:27.466Z,63.96
2024-02-04T05:53:27.448Z,63.57
2024-02-04T05:54:27.469Z,63.54
2024-02-04T05:55:27.429Z,64.16
2024-02-04T05:56:27.406Z,64.47
2024-02-04T05:57:27.414Z,64.06
2024-02-04T05:58:27.376Z,63.65
2024-02-04T05:59:27.412Z,63.75
2024-02-04T06:00:27.375Z,63.75
2024-02-04T06:01:27.337Z,63.34
2024-02-04T06:02:28.440Z,63.34
2024-02-04T06:03:28.548Z,63.13
2024-02-04T06:04:27.437Z,62.45
2024-02-04T06:05:27.329Z,63.06
2024-02-04T06:06:27.481Z,61.93
2024-02-04T06:07:27.332Z,62.96
2024-02-04T06:08:27.283Z,61.90
2024-02-04T06:09:28.377Z,61.49
2024-02-04T06:10:28.072Z,62.14
2024-02-04T06:11:27.248Z,61.32
2024-02-04T06:12:27.261Z,61.83
2024-02-04T06:13:27.238Z,62.14
2024-02-04T06:14:27.210Z,61.60
2024-02-04T06:15:27.288Z,61.83
2024-02-04T06:16:27.217Z,61.90
2024-02-04T06:17:27.213Z,62.14
2024-02-04T06:18:27.298Z,61.93
2024-02-04T06:19:27.229Z,61.00
2024-02-04T06:20:27.190Z,62.14
2024-02-04T06:21:27.286Z,61.52
2024-02-04T06:22:27.149Z,61.62
2024-02-04T06:23:27.153Z,61.62
2024-02-04T06:24:27.118Z,61.42
2024-02-04T06:25:27.154Z,61.62
2024-02-04T06:26:27.092Z,61.90
2024-02-04T06:27:27.259Z,61.93
2024-02-04T06:28:27.124Z,61.11
2024-02-04T06:29:27.064Z,61.80
2024-02-04T06:30:27.099Z,61.72
2024-02-04T06:31:27.072Z,62.21
2024-02-04T06:32:27.079Z,61.11
2024-02-04T06:33:27.316Z,61.62
2024-02-04T06:34:27.151Z,62.04
2024-02-04T06:35:27.030Z,61.93
2024-02-04T06:36:27.085Z,61.83
2024-02-04T06:37:27.086Z,61.83
2024-02-04T06:38:26.983Z,62.04
2024-02-04T06:39:26.996Z,60.80
2024-02-04T06:40:26.990Z,61.70
2024-02-04T06:41:26.966Z,61.52
2024-02-04T06:42:26.993Z,61.83
2024-02-04T06:43:26.942Z,61.72
2024-02-04T06:44:26.932Z,61.52
2024-02-04T06:45:26.929Z,61.52
2024-02-04T06:46:26.931Z,61.62
2024-02-04T06:47:26.922Z,61.80
2024-02-04T06:48:26.948Z,61.42
2024-02-04T06:49:26.966Z,61.93
2024-02-04T06:50:26.927Z,61.42
2024-02-04T06:51:27.039Z,61.42
2024-02-04T06:52:26.852Z,61.52
2024-02-04T06:53:26.915Z,62.14
2024-02-04T06:54:26.875Z,61.52
2024-02-04T06:55:26.834Z,61.72
2024-02-04T06:56:26.833Z,61.42
2024-02-04T06:57:26.830Z,61.42
2024-02-04T06:58:26.844Z,61.11
2024-02-04T06:59:26.774Z,60.91
2024-02-04T07:00:26.921Z,61.39
2024-02-04T07:01:26.824Z,60.80
2024-02-04T07:02:26.751Z,61.18
2024-02-04T07:03:26.866Z,60.80
2024-02-04T07:04:26.801Z,60.67
2024-02-04T07:05:26.758Z,61.00
2024-02-04T07:06:26.834Z,60.88
2024-02-04T07:07:26.728Z,61.18
2024-02-04T07:08:26.695Z,60.70
2024-02-04T07:09:26.700Z,60.91
2024-02-04T07:10:26.680Z,60.80
2024-02-04T07:11:26.658Z,61.00
2024-02-04T07:12:26.676Z,60.39
2024-02-04T07:13:26.635Z,60.49
2024-02-04T07:14:26.659Z,61.00
2024-02-04T07:15:26.657Z,60.49
2024-02-04T07:16:26.608Z,60.98
2024-02-04T07:17:26.655Z,60.80
2024-02-04T07:18:26.677Z,60.29
2024-02-04T07:19:26.696Z,60.49
2024-02-04T07:20:26.564Z,60.60
2024-02-04T07:21:26.582Z,60.77
2024-02-04T07:22:26.541Z,60.77
2024-02-04T07:23:26.566Z,60.47
2024-02-04T07:24:26.567Z,60.77
2024-02-04T07:25:26.517Z,60.49
2024-02-04T07:26:26.513Z,60.26
2024-02-04T07:27:26.513Z,60.88
2024-02-04T07:28:26.510Z,60.26
2024-02-04T07:29:26.475Z,60.08
2024-02-04T07:30:26.516Z,60.05
2024-02-04T07:31:26.457Z,60.47
2024-02-04T07:32:26.507Z,60.16
2024-02-04T07:33:27.399Z,60.36
2024-02-04T07:34:26.556Z,59.85
2024-02-04T07:35:26.437Z,59.85
2024-02-04T07:36:26.480Z,59.54
2024-02-04T07:37:26.426Z,59.54
2024-02-04T07:38:26.416Z,59.64
2024-02-04T07:39:26.449Z,58.83
2024-02-04T07:40:26.393Z,58.62
2024-02-04T07:41:26.404Z,58.72
2024-02-04T07:42:27.422Z,58.83
2024-02-04T07:43:26.345Z,59.34
2024-02-04T07:44:26.330Z,58.83
2024-02-04T07:45:26.342Z,58.92
2024-02-04T07:46:26.368Z,58.92
2024-02-04T07:47:26.319Z,59.16
2024-02-04T07:48:26.471Z,58.41
2024-02-04T07:49:26.380Z,58.85
2024-02-04T07:50:26.304Z,59.03
2024-02-04T07:51:26.369Z,58.54
2024-02-04T07:52:26.256Z,58.92
2024-02-04T07:53:26.252Z,58.92
2024-02-04T07:54:26.310Z,59.13
2024-02-04T07:55:26.236Z,59.03
2024-02-04T07:56:26.257Z,59.13
2024-02-04T07:57:26.219Z,58.72
2024-02-04T07:58:26.201Z,59.34
2024-02-04T07:59:26.203Z,59.23
2024-02-04T08:00:26.251Z,59.31
2024-02-04T08:01:26.317Z,59.54
2024-02-04T08:02:26.170Z,60.67
2024-02-04T08:03:26.239Z,60.85
2024-02-04T08:04:26.217Z,60.67
2024-02-04T08:05:26.161Z,60.77
2024-02-04T08:06:26.162Z,61.77
2024-02-04T08:07:26.165Z,61.46
2024-02-04T08:08:26.131Z,62.70
2024-02-04T08:09:26.116Z,62.18
2024-02-04T08:10:26.204Z,63.21
2024-02-04T08:11:26.130Z,63.51
2024-02-04T08:12:26.122Z,63.21
2024-02-04T08:13:26.065Z,63.62
2024-02-04T08:14:26.079Z,64.44
2024-02-04T08:15:26.131Z,65.03
2024-02-04T08:16:26.048Z,64.95
2024-02-04T08:17:26.023Z,65.26
2024-02-04T08:18:26.053Z,66.60
2024-02-04T08:19:26.160Z,67.79
2024-02-04T08:20:25.991Z,70.15
2024-02-04T08:21:26.011Z,70.56
2024-02-04T08:22:25.966Z,73.54
2024-02-04T08:23:25.971Z,73.33
2024-02-04T08:24:26.085Z,75.08
2024-02-04T08:25:25.931Z,76.92
2024-02-04T08:26:25.917Z,76.89
2024-02-04T08:27:25.956Z,77.81
2024-02-04T08:28:25.909Z,78.12
2024-02-04T08:29:25.909Z,78.94
2024-02-04T08:30:26.032Z,79.45
2024-02-04T08:31:25.868Z,79.14
2024-02-04T08:32:25.862Z,80.58
2024-02-04T08:33:26.026Z,81.46
2024-02-04T08:34:25.901Z,81.98
2024-02-04T08:35:25.843Z,81.77
2024-02-04T08:36:25.894Z,83.00
2024-02-04T08:37:28.519Z,84.95
2024-02-04T08:38:25.825Z,84.64
2024-02-04T08:39:25.823Z,85.36
2024-02-04T08:40:25.788Z,86.69
2024-02-04T08:41:25.770Z,86.58
2024-02-04T08:42:25.800Z,87.82
2024-02-04T08:43:25.778Z,87.98
2024-02-04T08:44:32.427Z,88.53
2024-02-04T08:45:27.762Z,89.31
2024-02-04T08:46:25.822Z,89.62
2024-02-04T08:47:25.769Z,90.13
2024-02-04T08:48:25.735Z,89.97
2024-02-04T08:49:25.803Z,91.26
2024-02-04T08:50:25.701Z,91.26
2024-02-04T08:51:26.550Z,91.26
2024-02-04T08:52:25.742Z,92.08
2024-02-04T08:53:25.644Z,92.28
2024-02-04T08:54:25.682Z,91.97
2024-02-04T08:55:25.628Z,91.87
2024-02-04T08:56:25.723Z,91.67
2024-02-04T08:57:25.668Z,92.18
2024-02-04T08:58:25.625Z,92.08
2024-02-04T08:59:25.696Z,90.75
2024-02-04T09:00:25.616Z,90.28
2024-02-04T09:01:25.701Z,90.23
2024-02-04T09:02:25.555Z,89.76
2024-02-04T09:03:25.655Z,88.02
2024-02-04T09:04:25.648Z,87.71
2024-02-04T09:05:25.545Z,86.99
2024-02-04T09:06:25.661Z,86.38
2024-02-04T09:07:25.648Z,85.97
2024-02-04T09:08:25.513Z,85.56
2024-02-04T09:09:25.583Z,84.95
2024-02-04T09:10:25.531Z,84.84
2024-02-04T09:11:25.490Z,84.44
2024-02-04T09:12:25.641Z,84.03
2024-02-04T09:13:25.497Z,84.99
2024-02-04T09:14:25.441Z,84.44
2024-02-04T09:15:25.521Z,83.82
2024-02-04T09:16:25.533Z,82.63
2024-02-04T09:17:25.444Z,81.77
2024-02-04T09:18:25.598Z,82.49
2024-02-04T09:19:25.615Z,82.49
2024-02-04T09:20:25.575Z,82.08
2024-02-04T09:21:25.436Z,83.00
2024-02-04T09:22:25.445Z,82.69
2024-02-04T09:23:25.447Z,82.49
2024-02-04T09:24:25.457Z,83.72
2024-02-04T09:25:25.488Z,84.53
2024-02-04T09:26:25.391Z,83.31
2024-02-04T09:27:25.357Z,84.60
2024-02-04T09:28:25.392Z,84.60
2024-02-04T09:29:25.340Z,84.91
2024-02-04T09:30:25.335Z,86.44
2024-02-04T09:31:25.483Z,85.93
2024-02-04T09:32:25.373Z,85.72
2024-02-04T09:33:25.462Z,86.55
2024-02-04T09:34:25.380Z,88.18
2024-02-04T09:35:25.407Z,88.39
2024-02-04T09:36:25.720Z,87.88
2024-02-04T09:37:25.274Z,87.63
2024-02-04T09:38:25.599Z,87.32
2024-02-04T09:39:25.311Z,87.84
2024-02-04T09:40:25.288Z,87.12
2024-02-04T09:41:25.173Z,87.84
2024-02-04T09:42:25.180Z,86.71
2024-02-04T09:43:25.381Z,85.69
2024-02-04T09:44:25.138Z,85.52
2024-02-04T09:45:25.175Z,84.97
2024-02-04T09:46:25.208Z,85.52
2024-02-04T09:47:25.208Z,84.50
2024-02-04T09:48:25.343Z,84.80
2024-02-04T09:49:25.210Z,84.70
2024-02-04T09:50:25.387Z,84.70
2024-02-04T09:51:25.141Z,83.88
2024-02-04T09:52:25.125Z,83.27
2024-02-04T09:53:25.068Z,81.94
2024-02-04T09:54:25.045Z,82.04
2024-02-04T09:55:25.221Z,81.94
2024-02-04T09:56:25.061Z,82.04
2024-02-04T09:57:25.072Z,82.04
2024-02-04T09:58:25.122Z,82.04
2024-02-04T09:59:25.043Z,82.35
2024-02-04T10:00:25.027Z,81.32
2024-02-04T10:01:25.160Z,81.94
2024-02-04T10:02:25.086Z,81.12
2024-02-04T10:03:24.999Z,82.04
2024-02-04T10:04:25.124Z,80.91
2024-02-04T10:05:25.091Z,81.22
2024-02-04T10:06:25.094Z,81.36
2024-02-04T10:07:25.083Z,80.64
2024-02-04T10:08:25.021Z,81.46
2024-02-04T10:09:24.897Z,81.32
2024-02-04T10:10:25.306Z,81.36
2024-02-04T10:11:24.918Z,81.52
2024-02-04T10:12:24.900Z,81.94
2024-02-04T10:13:24.865Z,81.84
2024-02-04T10:14:24.859Z,82.55
2024-02-04T10:15:24.863Z,82.45
2024-02-04T10:16:24.860Z,82.45
2024-02-04T10:17:24.833Z,82.14
2024-02-04T10:18:24.811Z,81.73
2024-02-04T10:19:24.864Z,81.32
2024-02-04T10:20:25.484Z,80.91
2024-02-04T10:21:24.851Z,81.01
2024-02-04T10:22:24.779Z,81.01
2024-02-04T10:23:24.760Z,80.30
2024-02-04T10:24:24.757Z,79.99
2024-02-04T10:25:24.846Z,79.99
2024-02-04T10:26:24.755Z,79.99
2024-02-04T10:27:32.222Z,79.99
2024-02-04T10:28:26.745Z,80.57
2024-02-04T10:29:24.711Z,81.29
2024-02-04T10:30:24.761Z,80.57
2024-02-04T10:31:24.678Z,81.38
2024-02-04T10:32:25.909Z,81.73
2024-02-04T10:33:24.712Z,82.04
2024-02-04T10:34:24.742Z,82.45
2024-02-04T10:35:25.099Z,82.65
2024-02-04T10:36:24.637Z,84.50
2024-02-04T10:37:26.690Z,85.22
2024-02-04T10:38:24.614Z,86.20
2024-02-04T10:39:24.630Z,86.40
2024-02-04T10:40:24.596Z,87.32
2024-02-04T10:41:24.569Z,88.51
2024-02-04T10:42:24.567Z,91.07
2024-02-04T10:43:24.543Z,91.17
2024-02-04T10:44:24.572Z,91.23
2024-02-04T10:45:24.543Z,90.45
2024-02-04T10:46:24.519Z,90.97
2024-02-04T10:47:24.541Z,90.45
2024-02-04T10:48:24.549Z,89.90
2024-02-04T10:49:24.557Z,90.41
2024-02-04T10:50:24.476Z,93.18
2024-02-04T10:51:24.471Z,92.05
2024-02-04T10:52:24.470Z,93.18
2024-02-04T10:53:24.496Z,92.71
2024-02-04T10:54:24.460Z,93.07
2024-02-04T10:55:24.500Z,93.79
2024-02-04T10:56:24.461Z,94.92
2024-02-04T10:57:24.589Z,93.79
2024-02-04T10:58:24.471Z,94.46
2024-02-04T10:59:24.395Z,93.33
2024-02-04T11:00:50.503Z,92.42
2024-02-04T11:01:24.479Z,92.83
2024-02-04T11:02:24.361Z,93.54
2024-02-04T11:03:24.525Z,92.32
2024-02-04T11:04:24.408Z,92.83
2024-02-04T11:05:24.337Z,93.54
2024-02-04T11:06:24.406Z,93.44
2024-02-04T11:07:25.374Z,93.13
2024-02-04T11:08:24.388Z,92.83
2024-02-04T11:09:24.297Z,93.33
2024-02-04T11:10:24.314Z,93.44
2024-02-04T11:11:24.285Z,93.03
2024-02-04T11:12:24.318Z,93.13
2024-02-04T11:13:24.249Z,92.21
2024-02-04T11:14:24.248Z,92.11
2024-02-04T11:15:24.350Z,92.93
2024-02-04T11:16:24.231Z,92.42
2024-02-04T11:17:24.992Z,93.33
2024-02-04T11:18:24.272Z,93.33
2024-02-04T11:19:24.582Z,93.18
2024-02-04T11:20:24.185Z,93.24
2024-02-04T11:21:24.189Z,93.59
2024-02-04T11:22:24.173Z,93.48
2024-02-04T11:23:24.163Z,93.28
2024-02-04T11:24:24.146Z,93.28
2024-02-04T11:25:24.132Z,93.89
2024-02-04T11:26:24.219Z,93.59
2024-02-04T11:27:24.118Z,93.89
2024-02-04T11:28:24.142Z,94.20
2024-02-04T11:29:24.183Z,93.38
2024-02-04T11:30:24.167Z,94.24
2024-02-04T11:31:24.201Z,93.99
2024-02-04T11:32:24.084Z,93.79
2024-02-04T11:33:24.292Z,94.10
2024-02-04T11:34:24.262Z,94.20
2024-02-04T11:35:24.361Z,93.22
2024-02-04T11:36:24.087Z,94.34
2024-02-04T11:37:24.190Z,93.43
2024-02-04T11:38:24.007Z,93.26
2024-02-04T11:39:24.167Z,93.57
2024-02-04T11:40:24.143Z,91.63
2024-02-04T11:41:24.021Z,92.96
2024-02-04T11:42:23.968Z,91.83
2024-02-04T11:43:24.094Z,91.83
2024-02-04T11:44:24.009Z,91.83
2024-02-04T11:45:23.960Z,92.14
2024-02-04T11:46:23.954Z,92.14
2024-02-04T11:47:23.946Z,91.31
2024-02-04T11:48:24.105Z,91.17
2024-02-04T11:49:24.118Z,92.24
2024-02-04T11:50:23.992Z,90.09
2024-02-04T11:51:23.946Z,89.78
2024-02-04T11:52:23.991Z,89.78
2024-02-04T11:53:23.871Z,89.89
2024-02-04T11:54:24.014Z,90.19
2024-02-04T11:55:23.932Z,90.30
2024-02-04T11:56:23.832Z,90.30
2024-02-04T11:57:23.838Z,90.19
2024-02-04T11:58:23.828Z,90.05
2024-02-04T11:59:23.955Z,89.84
2024-02-04T12:00:23.820Z,89.23
2024-02-04T12:01:23.881Z,89.12
2024-02-04T12:02:23.767Z,89.43
2024-02-04T12:03:23.778Z,92.19
2024-02-04T12:04:23.785Z,91.13
2024-02-04T12:05:23.868Z,90.41
2024-02-04T12:06:23.740Z,90.62
2024-02-04T12:07:23.856Z,90.68
2024-02-04T12:08:23.784Z,91.09
2024-02-04T12:09:23.699Z,91.91
2024-02-04T12:10:23.699Z,91.95
2024-02-04T12:11:23.679Z,93.24
2024-02-04T12:12:23.686Z,93.24
2024-02-04T12:13:23.682Z,92.83
2024-02-04T12:14:23.664Z,92.78
2024-02-04T12:15:23.649Z,93.60
2024-02-04T12:16:23.628Z,93.19
2024-02-04T12:17:23.641Z,92.93
2024-02-04T12:18:23.796Z,93.44
2024-02-04T12:19:23.810Z,92.32
2024-02-04T12:20:23.660Z,92.72
2024-02-04T12:21:23.577Z,92.99
2024-02-04T12:22:23.633Z,93.29
2024-02-04T12:23:23.554Z,93.09
2024-02-04T12:24:23.559Z,93.80
2024-02-04T12:25:23.533Z,92.83
2024-02-04T12:26:23.529Z,92.93
2024-02-04T12:27:23.628Z,92.21
2024-02-04T12:28:23.529Z,93.03
2024-02-04T12:29:23.499Z,93.03
2024-02-04T12:30:23.494Z,93.19
2024-02-04T12:31:23.543Z,93.03
2024-02-04T12:32:23.534Z,92.11
2024-02-04T12:33:23.613Z,91.70
2024-02-04T12:34:23.455Z,92.32
2024-02-04T12:35:23.447Z,91.85
2024-02-04T12:36:23.451Z,91.91
2024-02-04T12:37:23.480Z,90.99
2024-02-04T12:38:23.409Z,90.58
2024-02-04T12:39:23.395Z,90.23
2024-02-04T12:40:23.385Z,90.33
2024-02-04T12:41:23.395Z,91.05
2024-02-04T12:42:23.361Z,90.68
2024-02-04T12:43:23.451Z,90.58
2024-02-04T12:44:23.369Z,90.23
2024-02-04T12:45:23.353Z,90.33
2024-02-04T12:46:23.375Z,91.15
2024-02-04T12:47:23.314Z,91.15
2024-02-04T12:48:23.309Z,91.15
2024-02-04T12:49:23.569Z,91.96
2024-02-04T12:50:23.487Z,91.86
2024-02-04T12:51:23.279Z,91.19
2024-02-04T12:52:23.351Z,90.99